Terminal Aerodrome Forecast
Issued by NWS

Home | Current Version | Previous Version | Graphics & Text | Print | Product List | Glossary On
Versions: 1 2 3 4 5 6 7 8 9 10 11 12 13 14 15 16 17 18 19 20 21 22
000
FTUS43 KGRB 110527
TAFMTW
TAF
KMTW 110527Z 1106/1206 30002KT P6SM SCT025 OVC035
     FM111000 20004KT P6SM -SHSN OVC035
     FM111300 20006KT 2SM -SHSN OVC016
     FM111800 24006KT 4SM -FZDZSN OVC013
     FM120100 33010G16KT P6SM BKN022
     FM120400 33013G22KT P6SM SCT035=

USA.gov is the U.S. government's official web portal to all federal, state and local government web resources and services.